Time;durP1;ratioP1;P1;durP2;ratioP2;P2;SDS_P1;SDS_P2;PMS_P1;PMS_P2;Temp;Humidity;BMP_temperature;BMP_pressure;BME280_temperature;BME280_humidity;BME280_pressure;Samples;Min_cycle;Max_cycle;Signal;HPM_P1;HPM_P2
2024/01/14 00:00:34;;;;;;;36.45;12.98;;;;;;;;;;4993709;28;20130;-76
2024/01/14 00:03:00;;;;;;;40.38;11.50;;;;;;;;;;4997113;28;20522;-76
2024/01/14 00:05:25;;;;;;;29.80;12.02;;;;;;;;;;5022505;28;20064;-76
2024/01/14 00:07:52;;;;;;;36.55;13.45;;;;;;;;;;5017140;28;20023;-76
2024/01/14 00:10:18;;;;;;;37.60;12.82;;;;;;;;;;4976383;28;20030;-77
2024/01/14 00:12:44;;;;;;;43.50;11.60;;;;;;;;;;4974390;28;20034;-76
2024/01/14 00:15:10;;;;;;;34.63;10.95;;;;;;;;;;4991483;28;20066;-76
2024/01/14 00:17:35;;;;;;;42.42;10.68;;;;;;;;;;4973543;28;20065;-77
2024/01/14 00:20:02;;;;;;;30.80;10.27;;;;;;;;;;5001305;28;20046;-77
2024/01/14 00:22:28;;;;;;;40.72;12.40;;;;;;;;;;5010934;28;20030;-76
2024/01/14 00:24:54;;;;;;;38.70;12.68;;;;;;;;;;4988611;28;20530;-76
2024/01/14 00:27:19;;;;;;;25.83;7.20;;;;;;;;;;4999474;28;20042;-77
2024/01/14 00:29:45;;;;;;;36.28;12.75;;;;;;;;;;4998997;28;20073;-77
2024/01/14 00:32:10;;;;;;;32.45;11.82;;;;;;;;;;4989544;28;20038;-76
2024/01/14 00:34:38;;;;;;;47.63;14.38;;;;;;;;;;4980858;28;20041;-76
2024/01/14 00:37:04;;;;;;;36.20;11.73;;;;;;;;;;5006570;28;20400;-76
2024/01/14 00:39:29;;;;;;;42.30;12.57;;;;;;;;;;4989790;28;20049;-77
2024/01/14 00:41:54;;;;;;;38.03;11.30;;;;;;;;;;4990800;28;20042;-77
2024/01/14 00:44:20;;;;;;;30.05;10.40;;;;;;;;;;4990337;28;20076;-76
2024/01/14 00:46:45;;;;;;;43.63;13.50;;;;;;;;;;4990390;28;20038;-76
2024/01/14 00:49:10;;;;;;;45.72;12.93;;;;;;;;;;4973291;28;20030;-77
2024/01/14 00:51:36;;;;;;;34.22;11.55;;;;;;;;;;4989560;28;20562;-76
2024/01/14 00:54:01;;;;;;;38.83;11.05;;;;;;;;;;4972869;28;20756;-77
2024/01/14 00:56:27;;;;;;;37.97;12.23;;;;;;;;;;4989888;28;20089;-76
2024/01/14 00:58:52;;;;;;;33.05;11.65;;;;;;;;;;4972530;28;20038;-76
2024/01/14 01:01:18;;;;;;;30.90;11.05;;;;;;;;;;4974066;28;20034;-77
2024/01/14 01:03:43;;;;;;;40.90;12.32;;;;;;;;;;5002034;28;20578;-76
2024/01/14 01:06:08;;;;;;;31.13;12.05;;;;;;;;;;5010004;28;20101;-77
2024/01/14 01:08:34;;;;;;;35.95;12.40;;;;;;;;;;5009643;28;20049;-76
2024/01/14 01:10:59;;;;;;;29.80;9.98;;;;;;;;;;5009987;28;20133;-77
2024/01/14 01:13:25;;;;;;;42.67;13.30;;;;;;;;;;5010173;28;20041;-76
2024/01/14 01:15:50;;;;;;;26.00;10.32;;;;;;;;;;5009196;28;20053;-76
2024/01/14 01:18:16;;;;;;;35.15;12.07;;;;;;;;;;4992826;28;20038;-76
2024/01/14 01:20:41;;;;;;;39.15;12.98;;;;;;;;;;5009977;28;20037;-76
2024/01/14 01:23:06;;;;;;;33.35;10.80;;;;;;;;;;5014129;28;20101;-77
2024/01/14 01:25:32;;;;;;;36.00;11.13;;;;;;;;;;5000975;28;20029;-76
2024/01/14 01:27:57;;;;;;;36.67;11.35;;;;;;;;;;5013771;28;20122;-76
2024/01/14 01:30:22;;;;;;;37.13;11.13;;;;;;;;;;5009601;28;20741;-76
2024/01/14 01:32:49;;;;;;;39.53;11.60;;;;;;;;;;4990694;28;20065;-76
2024/01/14 01:35:15;;;;;;;33.47;11.05;;;;;;;;;;4991123;28;20973;-76
2024/01/14 01:37:40;;;;;;;26.85;9.25;;;;;;;;;;5033437;28;20561;-76
2024/01/14 01:40:09;;;;;;;33.65;11.20;;;;;;;;;;5011213;28;20029;-76
2024/01/14 01:42:34;;;;;;;25.58;10.93;;;;;;;;;;5028808;28;20042;-76
2024/01/14 01:45:00;;;;;;;22.35;8.90;;;;;;;;;;5028615;28;20517;-76
2024/01/14 01:47:25;;;;;;;35.00;10.13;;;;;;;;;;5028489;28;20052;-76
2024/01/14 01:49:50;;;;;;;21.80;7.70;;;;;;;;;;5028523;28;20510;-76
2024/01/14 01:52:16;;;;;;;41.50;13.13;;;;;;;;;;5028676;28;20033;-76
2024/01/14 01:54:42;;;;;;;30.45;10.30;;;;;;;;;;5010683;28;20042;-76
2024/01/14 01:57:09;;;;;;;35.03;10.18;;;;;;;;;;5029024;28;20474;-76
2024/01/14 01:59:34;;;;;;;36.10;11.90;;;;;;;;;;5010902;28;20037;-77
2024/01/14 02:02:02;;;;;;;31.15;10.80;;;;;;;;;;5023947;28;20057;-76
2024/01/14 02:04:28;;;;;;;35.47;11.25;;;;;;;;;;5021444;28;20050;-76
2024/01/14 02:06:54;;;;;;;40.10;11.88;;;;;;;;;;5017489;28;20080;-76
2024/01/14 02:09:20;;;;;;;23.80;9.02;;;;;;;;;;5027928;28;20046;-76
2024/01/14 02:11:46;;;;;;;35.22;11.07;;;;;;;;;;5028468;28;20040;-76
2024/01/14 02:14:11;;;;;;;42.60;11.52;;;;;;;;;;5009827;28;20033;-76
2024/01/14 02:16:37;;;;;;;39.25;11.52;;;;;;;;;;5010373;28;20022;-76
2024/01/14 02:19:02;;;;;;;39.85;13.10;;;;;;;;;;5029052;28;20076;-76
2024/01/14 02:21:48;;;;;;;34.88;11.13;;;;;;;;;;5027299;28;20064;-76
2024/01/14 02:24:34;;;;;;;32.45;11.85;;;;;;;;;;5027739;28;20034;-76
2024/01/14 02:27:00;;;;;;;36.22;11.23;;;;;;;;;;5028432;28;20057;-76
2024/01/14 02:29:28;;;;;;;32.03;9.23;;;;;;;;;;5028020;28;20041;-77
2024/01/14 02:31:54;;;;;;;28.02;9.50;;;;;;;;;;5028323;28;20325;-76
2024/01/14 02:34:20;;;;;;;35.75;10.70;;;;;;;;;;5010963;28;20033;-76
2024/01/14 02:36:45;;;;;;;37.28;12.70;;;;;;;;;;5017779;28;20044;-76
2024/01/14 02:39:11;;;;;;;28.95;9.45;;;;;;;;;;5010999;28;20037;-76
2024/01/14 02:41:36;;;;;;;31.55;10.73;;;;;;;;;;5012425;28;20061;-76
2024/01/14 02:44:02;;;;;;;30.13;10.50;;;;;;;;;;5036851;28;20048;-76
2024/01/14 02:46:29;;;;;;;35.22;10.75;;;;;;;;;;5022953;28;20093;-77
2024/01/14 02:48:54;;;;;;;33.47;11.50;;;;;;;;;;5014208;28;20037;-76
2024/01/14 02:51:20;;;;;;;34.97;11.52;;;;;;;;;;5012367;28;20048;-76
2024/01/14 02:53:45;;;;;;;42.85;11.68;;;;;;;;;;5009299;28;20041;-76
2024/01/14 02:56:11;;;;;;;32.53;9.65;;;;;;;;;;5008019;28;20114;-76
2024/01/14 02:58:37;;;;;;;28.42;9.48;;;;;;;;;;4996518;28;20045;-76
2024/01/14 03:01:02;;;;;;;30.52;9.75;;;;;;;;;;5010329;28;20030;-76
2024/01/14 03:03:28;;;;;;;34.42;10.30;;;;;;;;;;5012655;28;20124;-76
2024/01/14 03:05:53;;;;;;;27.30;10.27;;;;;;;;;;5031705;28;20048;-76
2024/01/14 03:08:19;;;;;;;30.88;9.00;;;;;;;;;;5031607;28;20044;-76
2024/01/14 03:10:44;;;;;;;30.67;9.25;;;;;;;;;;5030987;28;20013;-76
2024/01/14 03:13:13;;;;;;;34.10;9.57;;;;;;;;;;5022689;28;20495;-76
2024/01/14 03:15:38;;;;;;;29.17;10.13;;;;;;;;;;5000652;28;20038;-76
2024/01/14 03:18:04;;;;;;;33.72;9.60;;;;;;;;;;4993794;28;20032;-77
2024/01/14 03:20:29;;;;;;;35.78;10.70;;;;;;;;;;5010888;28;20060;-76
2024/01/14 03:22:55;;;;;;;34.30;9.68;;;;;;;;;;5011757;28;20029;-76
2024/01/14 03:25:20;;;;;;;31.83;9.55;;;;;;;;;;5011706;28;20160;-76
2024/01/14 03:27:45;;;;;;;28.00;9.23;;;;;;;;;;4993488;28;20034;-76
2024/01/14 03:30:11;;;;;;;28.30;9.57;;;;;;;;;;4993244;28;20053;-76
2024/01/14 03:32:36;;;;;;;27.92;9.57;;;;;;;;;;5011223;28;20034;-76
2024/01/14 03:35:02;;;;;;;29.70;9.75;;;;;;;;;;4998311;28;20033;-77
2024/01/14 03:37:28;;;;;;;37.38;10.63;;;;;;;;;;5005625;28;20582;-76
2024/01/14 03:39:54;;;;;;;35.15;10.15;;;;;;;;;;5013607;28;20076;-76
2024/01/14 03:42:19;;;;;;;18.73;6.75;;;;;;;;;;5013001;28;20634;-77
2024/01/14 03:44:44;;;;;;;38.88;11.57;;;;;;;;;;5031233;28;20029;-76
2024/01/14 03:47:10;;;;;;;30.48;9.63;;;;;;;;;;5012678;28;20029;-76
2024/01/14 03:49:35;;;;;;;28.90;9.98;;;;;;;;;;5003169;28;20101;-76
2024/01/14 03:52:01;;;;;;;28.17;9.32;;;;;;;;;;5020453;28;20052;-76
2024/01/14 03:54:26;;;;;;;28.15;9.23;;;;;;;;;;5010967;28;20068;-76
2024/01/14 03:56:51;;;;;;;28.77;10.15;;;;;;;;;;4993220;28;20065;-76
2024/01/14 03:59:17;;;;;;;28.92;10.18;;;;;;;;;;5012319;28;20038;-76
2024/01/14 04:01:43;;;;;;;29.17;9.30;;;;;;;;;;4996594;28;20057;-77
2024/01/14 04:04:09;;;;;;;28.52;9.65;;;;;;;;;;5002578;28;20044;-76
2024/01/14 04:06:35;;;;;;;21.25;8.32;;;;;;;;;;5016184;28;20112;-76
2024/01/14 04:09:01;;;;;;;33.60;11.35;;;;;;;;;;4992881;28;20041;-76
2024/01/14 04:11:26;;;;;;;26.70;9.85;;;;;;;;;;5024606;28;20041;-76
2024/01/14 04:13:52;;;;;;;29.92;9.75;;;;;;;;;;5011738;28;20049;-76
2024/01/14 04:16:18;;;;;;;28.55;9.15;;;;;;;;;;5030822;28;20046;-76
2024/01/14 04:18:43;;;;;;;32.45;8.93;;;;;;;;;;5030696;28;20038;-76
2024/01/14 04:21:08;;;;;;;31.48;9.75;;;;;;;;;;5030481;28;20096;-76
2024/01/14 04:23:34;;;;;;;28.77;8.95;;;;;;;;;;5029914;28;20041;-76
2024/01/14 04:26:05;;;;;;;23.50;8.13;;;;;;;;;;5012446;28;20061;-76
2024/01/14 04:28:30;;;;;;;31.83;10.07;;;;;;;;;;5030489;28;20065;-76
2024/01/14 04:30:56;;;;;;;26.35;8.25;;;;;;;;;;5011573;28;20080;-76
2024/01/14 04:33:21;;;;;;;30.85;10.55;;;;;;;;;;5030274;28;20041;-76
2024/01/14 04:35:46;;;;;;;25.50;8.52;;;;;;;;;;5029797;28;20030;-76
2024/01/14 04:38:13;;;;;;;28.90;8.68;;;;;;;;;;5004491;28;20037;-76
2024/01/14 04:40:38;;;;;;;23.55;8.80;;;;;;;;;;5011729;28;20121;-76
2024/01/14 04:43:04;;;;;;;36.90;12.48;;;;;;;;;;5029615;28;20112;-76
2024/01/14 04:45:29;;;;;;;33.22;10.70;;;;;;;;;;5029772;28;20518;-76
2024/01/14 04:47:54;;;;;;;25.63;8.68;;;;;;;;;;5012031;28;20140;-76
2024/01/14 04:50:20;;;;;;;34.90;11.05;;;;;;;;;;5011423;28;20062;-76
2024/01/14 04:52:45;;;;;;;26.48;10.15;;;;;;;;;;5029590;28;20029;-77
2024/01/14 04:55:13;;;;;;;27.02;8.75;;;;;;;;;;5019794;28;20018;-76
2024/01/14 04:57:38;;;;;;;30.30;10.15;;;;;;;;;;5009735;28;20033;-76
2024/01/14 05:00:05;;;;;;;27.13;8.98;;;;;;;;;;5025253;28;20052;-77
2024/01/14 05:02:30;;;;;;;28.40;10.25;;;;;;;;;;5031672;28;20762;-76
2024/01/14 05:04:55;;;;;;;30.48;9.82;;;;;;;;;;5030623;28;20049;-76
2024/01/14 05:07:21;;;;;;;20.15;8.27;;;;;;;;;;5018758;28;20058;-76
2024/01/14 05:09:46;;;;;;;31.38;9.70;;;;;;;;;;4991773;28;20125;-76
2024/01/14 05:12:12;;;;;;;33.08;10.52;;;;;;;;;;4991285;28;20041;-76
2024/01/14 05:14:37;;;;;;;23.00;9.43;;;;;;;;;;5009810;28;20041;-76
2024/01/14 05:17:02;;;;;;;36.50;10.18;;;;;;;;;;4992163;28;20034;-76
2024/01/14 05:19:28;;;;;;;32.90;10.15;;;;;;;;;;4993650;28;20646;-76
2024/01/14 05:21:53;;;;;;;23.80;9.02;;;;;;;;;;5002968;28;20045;-75
2024/01/14 05:24:19;;;;;;;25.23;7.95;;;;;;;;;;5030415;28;20052;-76
2024/01/14 05:26:44;;;;;;;26.40;8.82;;;;;;;;;;5038445;28;20410;-76
2024/01/14 05:29:10;;;;;;;27.35;9.73;;;;;;;;;;5030957;28;20045;-75
2024/01/14 05:31:37;;;;;;;34.63;10.07;;;;;;;;;;5029455;28;20495;-76
2024/01/14 05:34:03;;;;;;;31.80;9.90;;;;;;;;;;5029001;28;20416;-76
2024/01/14 05:36:29;;;;;;;24.77;9.00;;;;;;;;;;5038216;28;20040;-75
2024/01/14 05:38:54;;;;;;;28.75;9.10;;;;;;;;;;5007443;28;20041;-76
2024/01/14 05:41:20;;;;;;;29.45;8.75;;;;;;;;;;5005622;28;20045;-76
2024/01/14 05:43:45;;;;;;;27.77;8.43;;;;;;;;;;5023779;28;20057;-76
2024/01/14 05:46:11;;;;;;;20.13;6.53;;;;;;;;;;5023058;28;20057;-76
2024/01/14 05:48:36;;;;;;;32.25;9.95;;;;;;;;;;5022572;28;20045;-76
2024/01/14 05:51:02;;;;;;;29.25;9.30;;;;;;;;;;4994517;28;20060;-75
2024/01/14 05:53:28;;;;;;;31.10;9.65;;;;;;;;;;5009035;28;20081;-75
2024/01/14 05:55:53;;;;;;;35.47;9.82;;;;;;;;;;4990526;28;20060;-75
2024/01/14 05:58:18;;;;;;;30.02;10.07;;;;;;;;;;5008951;28;20157;-76
2024/01/14 06:00:44;;;;;;;22.77;8.13;;;;;;;;;;5008911;28;20052;-76
2024/01/14 06:03:09;;;;;;;30.33;10.13;;;;;;;;;;5009908;28;20053;-76
2024/01/14 06:05:35;;;;;;;25.98;7.97;;;;;;;;;;5008064;28;20632;-76
2024/01/14 06:08:00;;;;;;;34.42;9.50;;;;;;;;;;5008466;28;20137;-76
2024/01/14 06:10:26;;;;;;;29.33;9.63;;;;;;;;;;5009015;28;20037;-76
2024/01/14 06:12:51;;;;;;;28.42;9.77;;;;;;;;;;5008178;28;20033;-76
2024/01/14 06:15:17;;;;;;;28.52;8.60;;;;;;;;;;4989930;28;20604;-76
2024/01/14 06:17:42;;;;;;;23.88;7.70;;;;;;;;;;4990363;28;20570;-77
2024/01/14 06:20:09;;;;;;;25.73;8.77;;;;;;;;;;5007913;28;20052;-76
2024/01/14 06:22:34;;;;;;;27.65;8.75;;;;;;;;;;5011033;28;20026;-76
2024/01/14 06:25:00;;;;;;;26.98;8.45;;;;;;;;;;5007340;28;20052;-76
2024/01/14 06:27:26;;;;;;;22.98;6.97;;;;;;;;;;5008021;28;20038;-76
2024/01/14 06:29:51;;;;;;;24.60;8.27;;;;;;;;;;4990326;28;20063;-76
2024/01/14 06:32:17;;;;;;;28.15;8.85;;;;;;;;;;4990378;28;20038;-76
2024/01/14 06:34:42;;;;;;;21.60;7.85;;;;;;;;;;4992679;28;20035;-76
2024/01/14 06:37:07;;;;;;;22.92;7.85;;;;;;;;;;5006810;28;20080;-76
2024/01/14 06:39:33;;;;;;;20.98;6.80;;;;;;;;;;5006636;28;20117;-76
2024/01/14 06:41:58;;;;;;;24.38;7.55;;;;;;;;;;5008108;28;20105;-76
2024/01/14 06:44:24;;;;;;;23.33;8.27;;;;;;;;;;5006732;28;20062;-77
2024/01/14 06:46:51;;;;;;;26.65;8.20;;;;;;;;;;5006944;28;20030;-76
2024/01/14 06:49:17;;;;;;;29.95;7.95;;;;;;;;;;5007749;28;20064;-76
2024/01/14 06:51:46;;;;;;;25.77;8.65;;;;;;;;;;5007262;28;20513;-76
2024/01/14 06:54:11;;;;;;;32.55;9.68;;;;;;;;;;5033160;28;20443;-76
2024/01/14 06:56:47;;;;;;;27.83;10.15;;;;;;;;;;5015187;28;20038;-76
2024/01/14 06:59:21;;;;;;;29.35;9.13;;;;;;;;;;4998461;28;20787;-77
2024/01/14 07:01:47;;;;;;;30.33;9.18;;;;;;;;;;4992161;28;20026;-76
2024/01/14 07:04:13;;;;;;;32.97;10.60;;;;;;;;;;5009736;28;20069;-76
2024/01/14 07:06:39;;;;;;;25.98;8.68;;;;;;;;;;5009668;28;20336;-76
2024/01/14 07:09:05;;;;;;;22.58;8.30;;;;;;;;;;5009663;28;20585;-76
2024/01/14 07:11:31;;;;;;;17.00;5.72;;;;;;;;;;5013841;28;20038;-77
2024/01/14 07:13:58;;;;;;;29.60;7.85;;;;;;;;;;4990624;28;20042;-76
2024/01/14 07:16:23;;;;;;;21.88;7.95;;;;;;;;;;5007159;28;20092;-76
2024/01/14 07:18:49;;;;;;;30.17;8.40;;;;;;;;;;4990194;28;20034;-76
2024/01/14 07:21:14;;;;;;;12.93;5.20;;;;;;;;;;5007397;28;20045;-76
2024/01/14 07:23:39;;;;;;;38.72;10.48;;;;;;;;;;4999050;28;20052;-75
2024/01/14 07:26:11;;;;;;;29.45;8.10;;;;;;;;;;5023875;28;20040;-76
2024/01/14 07:28:36;;;;;;;29.45;8.77;;;;;;;;;;5005231;28;20072;-76
2024/01/14 07:31:02;;;;;;;32.15;9.57;;;;;;;;;;5006819;28;20029;-76
2024/01/14 07:33:27;;;;;;;32.10;9.45;;;;;;;;;;5024271;28;20053;-77
2024/01/14 07:35:52;;;;;;;23.15;7.22;;;;;;;;;;5006106;28;20116;-76
2024/01/14 07:38:18;;;;;;;14.57;5.45;;;;;;;;;;5003131;28;20076;-77
2024/01/14 07:40:43;;;;;;;31.70;10.52;;;;;;;;;;5023653;28;20075;-77
2024/01/14 07:43:08;;;;;;;32.95;9.35;;;;;;;;;;5006976;28;20513;-76
2024/01/14 07:45:34;;;;;;;26.80;8.63;;;;;;;;;;5005704;28;20060;-77
2024/01/14 07:47:59;;;;;;;29.27;10.18;;;;;;;;;;5023798;28;20037;-77
2024/01/14 07:50:24;;;;;;;16.20;6.82;;;;;;;;;;5027112;28;20091;-77
2024/01/14 07:52:50;;;;;;;28.67;9.18;;;;;;;;;;5028366;28;20435;-77
2024/01/14 07:55:16;;;;;;;24.02;8.73;;;;;;;;;;5010664;28;20029;-77
2024/01/14 07:57:43;;;;;;;21.90;8.43;;;;;;;;;;5010346;28;20064;-77
2024/01/14 08:00:10;;;;;;;24.80;8.00;;;;;;;;;;5025428;28;20040;-76
2024/01/14 08:02:35;;;;;;;23.70;7.80;;;;;;;;;;5025994;28;20049;-77
2024/01/14 08:05:00;;;;;;;27.13;8.50;;;;;;;;;;5028487;28;20092;-77
2024/01/14 08:07:26;;;;;;;28.15;9.68;;;;;;;;;;5009787;28;20040;-77
2024/01/14 08:09:52;;;;;;;24.33;7.32;;;;;;;;;;5009683;28;20060;-76
2024/01/14 08:12:17;;;;;;;20.52;7.45;;;;;;;;;;5027835;28;20039;-77
2024/01/14 08:14:42;;;;;;;26.95;8.77;;;;;;;;;;5028444;28;20063;-77
2024/01/14 08:17:08;;;;;;;14.70;5.93;;;;;;;;;;5034503;28;20483;-77
2024/01/14 08:19:33;;;;;;;26.70;9.45;;;;;;;;;;5009798;28;20100;-77
2024/01/14 08:21:58;;;;;;;21.73;7.72;;;;;;;;;;5019274;28;20048;-77
2024/01/14 08:24:24;;;;;;;29.67;9.80;;;;;;;;;;5025042;28;20422;-77
2024/01/14 08:26:50;;;;;;;26.17;6.82;;;;;;;;;;5020672;28;20037;-77
2024/01/14 08:29:15;;;;;;;18.42;6.57;;;;;;;;;;5000275;28;20079;-79
2024/01/14 08:31:41;;;;;;;23.98;8.20;;;;;;;;;;5019185;28;20026;-77
2024/01/14 08:34:12;;;;;;;23.98;8.27;;;;;;;;;;5005688;28;20025;-77
2024/01/14 08:36:41;;;;;;;31.23;10.75;;;;;;;;;;5017711;28;20030;-78
2024/01/14 08:39:07;;;;;;;23.42;7.50;;;;;;;;;;5031189;28;20040;-76
2024/01/14 08:41:32;;;;;;;30.23;8.25;;;;;;;;;;5047537;28;20052;-77
2024/01/14 08:43:59;;;;;;;27.15;9.27;;;;;;;;;;5047397;28;20564;-77
2024/01/14 08:46:26;;;;;;;28.05;10.32;;;;;;;;;;5026939;28;20312;-78
2024/01/14 08:48:52;;;;;;;28.45;9.50;;;;;;;;;;5020320;28;20044;-77
2024/01/14 08:51:17;;;;;;;31.40;10.07;;;;;;;;;;5008829;28;20056;-78
2024/01/14 08:53:42;;;;;;;23.70;8.50;;;;;;;;;;5008841;28;20633;-77
2024/01/14 08:56:08;;;;;;;34.88;10.20;;;;;;;;;;5026636;28;20033;-77
2024/01/14 08:58:33;;;;;;;21.25;7.22;;;;;;;;;;5009850;28;20052;-77
2024/01/14 09:00:59;;;;;;;17.85;7.63;;;;;;;;;;5011738;28;20085;-77
2024/01/14 09:03:24;;;;;;;22.85;7.82;;;;;;;;;;5014526;28;20053;-77
2024/01/14 09:05:49;;;;;;;26.33;7.85;;;;;;;;;;5001699;28;20048;-77
2024/01/14 09:08:15;;;;;;;21.77;7.13;;;;;;;;;;5004873;28;20684;-76
2024/01/14 09:10:40;;;;;;;22.45;8.18;;;;;;;;;;5026044;28;20065;-76
2024/01/14 09:13:06;;;;;;;23.92;7.97;;;;;;;;;;5026856;28;20096;-77
2024/01/14 09:15:31;;;;;;;24.92;8.23;;;;;;;;;;5023828;28;20077;-77
2024/01/14 09:17:57;;;;;;;18.23;6.70;;;;;;;;;;5015501;28;20113;-77
2024/01/14 09:20:22;;;;;;;27.70;8.90;;;;;;;;;;5006311;28;20043;-77
2024/01/14 09:22:48;;;;;;;22.00;7.40;;;;;;;;;;5001466;28;20410;-76
2024/01/14 09:25:14;;;;;;;18.45;6.88;;;;;;;;;;5005838;28;20026;-76
2024/01/14 09:27:40;;;;;;;23.17;7.78;;;;;;;;;;5025599;28;20034;-78
2024/01/14 09:30:07;;;;;;;19.40;7.82;;;;;;;;;;5026419;28;20418;-76
2024/01/14 09:32:33;;;;;;;18.65;6.55;;;;;;;;;;5008802;28;20056;-77
2024/01/14 09:34:58;;;;;;;21.70;7.75;;;;;;;;;;5022434;28;20037;-77
2024/01/14 09:37:24;;;;;;;21.95;6.80;;;;;;;;;;5028942;28;20026;-77
2024/01/14 09:39:49;;;;;;;18.63;6.63;;;;;;;;;;5009346;28;20057;-77
2024/01/14 09:42:18;;;;;;;17.15;6.78;;;;;;;;;;5020102;28;20064;-77
2024/01/14 09:44:46;;;;;;;9.88;5.05;;;;;;;;;;5020548;28;20091;-77
2024/01/14 09:47:14;;;;;;;19.75;7.55;;;;;;;;;;5021876;28;20042;-77
2024/01/14 09:49:41;;;;;;;22.35;7.65;;;;;;;;;;5016421;28;20034;-77
2024/01/14 09:52:09;;;;;;;16.73;6.13;;;;;;;;;;5005045;28;20056;-77
2024/01/14 09:54:34;;;;;;;20.73;7.30;;;;;;;;;;5000458;28;20415;-78
2024/01/14 09:57:05;;;;;;;23.70;7.78;;;;;;;;;;5004088;28;20041;-78
2024/01/14 09:59:33;;;;;;;20.75;8.27;;;;;;;;;;5002428;28;20041;-78
2024/01/14 10:01:58;;;;;;;19.98;6.03;;;;;;;;;;5004402;28;20144;-77
2024/01/14 10:04:24;;;;;;;24.90;8.00;;;;;;;;;;5024341;28;20100;-77
2024/01/14 10:06:49;;;;;;;19.15;7.00;;;;;;;;;;5023877;28;20061;-78
2024/01/14 10:09:14;;;;;;;25.95;6.45;;;;;;;;;;5024927;28;20123;-77
2024/01/14 10:11:40;;;;;;;20.92;7.57;;;;;;;;;;5024541;28;20748;-77
2024/01/14 10:14:05;;;;;;;20.67;7.53;;;;;;;;;;5026033;28;20034;-79
2024/01/14 10:16:37;;;;;;;21.13;7.47;;;;;;;;;;5025335;28;20026;-77
2024/01/14 10:19:04;;;;;;;18.33;6.25;;;;;;;;;;5007889;28;20035;-77
2024/01/14 10:21:30;;;;;;;21.70;7.28;;;;;;;;;;5008059;28;20090;-77
2024/01/14 10:23:56;;;;;;;22.88;6.68;;;;;;;;;;5005988;28;20091;-77
2024/01/14 10:26:23;;;;;;;13.98;5.85;;;;;;;;;;5019007;28;20041;-77
2024/01/14 10:28:48;;;;;;;19.63;7.18;;;;;;;;;;5003986;28;20022;-76
2024/01/14 10:31:13;;;;;;;17.88;6.40;;;;;;;;;;4996174;28;20644;-76
2024/01/14 10:33:39;;;;;;;19.42;6.72;;;;;;;;;;5014833;28;20037;-76
2024/01/14 10:36:08;;;;;;;20.42;6.72;;;;;;;;;;5024517;28;20052;-77
2024/01/14 10:38:34;;;;;;;16.65;6.15;;;;;;;;;;5003601;28;20052;-77
2024/01/14 10:41:00;;;;;;;20.35;7.18;;;;;;;;;;4996820;28;20121;-76
2024/01/14 10:43:26;;;;;;;18.38;6.60;;;;;;;;;;5003476;28;20553;-76
2024/01/14 10:45:52;;;;;;;31.20;8.30;;;;;;;;;;5002534;28;20141;-77
2024/01/14 10:48:28;;;;;;;21.70;6.97;;;;;;;;;;5002420;28;20041;-76
2024/01/14 10:50:56;;;;;;;20.80;7.20;;;;;;;;;;4992108;28;20034;-77
2024/01/14 10:53:30;;;;;;;17.38;7.05;;;;;;;;;;5017127;28;20033;-76
2024/01/14 10:56:01;;;;;;;21.23;6.65;;;;;;;;;;5000272;28;20030;-77
2024/01/14 10:58:30;;;;;;;19.70;7.03;;;;;;;;;;5000165;28;20010;-76
2024/01/14 11:01:01;;;;;;;18.05;6.07;;;;;;;;;;4999780;28;20038;-76
2024/01/14 11:03:28;;;;;;;16.67;6.57;;;;;;;;;;4999836;28;20133;-77
2024/01/14 11:05:54;;;;;;;17.17;6.70;;;;;;;;;;4990835;28;20088;-77
2024/01/14 11:08:21;;;;;;;24.98;7.97;;;;;;;;;;5002442;28;20045;-76
2024/01/14 11:10:49;;;;;;;19.42;7.13;;;;;;;;;;4984700;28;20608;-77
2024/01/14 11:13:23;;;;;;;19.75;6.47;;;;;;;;;;4985763;28;20144;-77
2024/01/14 11:16:07;;;;;;;23.92;7.18;;;;;;;;;;5002603;28;20041;-77
2024/01/14 11:18:45;;;;;;;15.68;6.78;;;;;;;;;;4985080;28;20049;-77
2024/01/14 11:21:16;;;;;;;21.20;6.15;;;;;;;;;;4985294;28;20030;-77
2024/01/14 11:23:42;;;;;;;23.05;7.97;;;;;;;;;;5004185;28;20046;-77
2024/01/14 11:26:07;;;;;;;24.10;8.02;;;;;;;;;;5005869;28;20598;-77
2024/01/14 11:28:33;;;;;;;27.30;7.80;;;;;;;;;;4988707;28;20030;-77
2024/01/14 11:31:01;;;;;;;22.48;7.55;;;;;;;;;;4990065;28;20037;-76
2024/01/14 11:33:46;;;;;;;23.02;8.88;;;;;;;;;;4999139;28;20092;-76
2024/01/14 11:36:12;;;;;;;28.25;8.63;;;;;;;;;;5025469;28;20033;-76
2024/01/14 11:38:44;;;;;;;25.98;8.43;;;;;;;;;;5009783;28;20053;-75
2024/01/14 11:41:28;;;;;;;27.73;9.05;;;;;;;;;;5032467;28;20129;-75
2024/01/14 11:44:04;;;;;;;17.42;6.43;;;;;;;;;;5012643;28;20051;-75
2024/01/14 11:46:37;;;;;;;22.33;7.07;;;;;;;;;;5023750;28;20030;-76
2024/01/14 11:49:06;;;;;;;20.42;7.38;;;;;;;;;;5046379;28;20038;-76
2024/01/14 11:51:32;;;;;;;22.95;6.95;;;;;;;;;;5024405;28;20800;-76
2024/01/14 11:53:59;;;;;;;19.33;6.45;;;;;;;;;;5025319;28;20033;-76
2024/01/14 11:56:29;;;;;;;27.58;9.52;;;;;;;;;;5024215;28;20040;-76
2024/01/14 11:58:54;;;;;;;19.27;5.90;;;;;;;;;;5006492;28;20038;-76
2024/01/14 12:01:22;;;;;;;26.67;7.72;;;;;;;;;;5006668;28;20025;-75
2024/01/14 12:04:00;;;;;;;27.83;9.27;;;;;;;;;;5024620;28;20533;-75
2024/01/14 12:06:25;;;;;;;25.40;7.75;;;;;;;;;;5024288;28;20076;-75
2024/01/14 12:08:59;;;;;;;23.50;8.27;;;;;;;;;;5009006;28;20610;-76
2024/01/14 12:11:25;;;;;;;24.27;7.95;;;;;;;;;;5004517;28;20084;-75
2024/01/14 12:13:50;;;;;;;21.02;7.45;;;;;;;;;;5005205;28;20125;-75
2024/01/14 12:16:15;;;;;;;21.90;7.32;;;;;;;;;;4987907;28;20108;-76
2024/01/14 12:18:41;;;;;;;22.95;7.65;;;;;;;;;;5005361;28;20030;-76
2024/01/14 12:21:06;;;;;;;26.40;7.80;;;;;;;;;;4988544;28;20042;-75
2024/01/14 12:23:32;;;;;;;28.95;7.97;;;;;;;;;;5005592;28;20033;-76
2024/01/14 12:26:04;;;;;;;24.20;8.27;;;;;;;;;;5011916;28;20080;-75
2024/01/14 12:28:30;;;;;;;25.63;8.10;;;;;;;;;;5018043;28;20030;-76
2024/01/14 12:30:59;;;;;;;14.70;5.00;;;;;;;;;;4991283;28;20718;-76
2024/01/14 12:33:25;;;;;;;32.13;10.20;;;;;;;;;;5007917;28;20026;-76
2024/01/14 12:35:50;;;;;;;23.05;7.22;;;;;;;;;;5010674;28;20109;-76
2024/01/14 12:38:16;;;;;;;17.52;6.38;;;;;;;;;;5025311;28;20033;-76
2024/01/14 12:40:41;;;;;;;27.50;7.43;;;;;;;;;;5020883;28;20026;-76
2024/01/14 12:43:07;;;;;;;22.13;7.65;;;;;;;;;;5005588;28;20036;-75
2024/01/14 12:45:33;;;;;;;18.77;6.30;;;;;;;;;;4978806;28;20131;-75
2024/01/14 12:47:59;;;;;;;25.42;8.40;;;;;;;;;;5005294;28;20100;-75
2024/01/14 12:50:43;;;;;;;18.13;7.10;;;;;;;;;;5005093;28;20122;-75
2024/01/14 12:53:12;;;;;;;;;;;;;;;;;;4987513;28;20487;-76
2024/01/14 12:55:37;;;;;;;21.58;7.22;;;;;;;;;;4987032;28;19921;-77
2024/01/14 12:58:03;;;;;;;25.35;8.20;;;;;;;;;;5005283;28;20069;-77
2024/01/14 13:00:29;;;;;;;24.52;7.45;;;;;;;;;;5003945;28;20495;-77
2024/01/14 13:02:55;;;;;;;19.27;7.13;;;;;;;;;;5020591;28;20116;-77
2024/01/14 13:05:21;;;;;;;16.65;6.68;;;;;;;;;;5005557;28;20041;-77
2024/01/14 13:07:46;;;;;;;18.42;6.20;;;;;;;;;;5022707;28;20033;-77
2024/01/14 13:10:12;;;;;;;21.90;7.45;;;;;;;;;;5023664;28;20025;-77
2024/01/14 13:12:38;;;;;;;24.08;8.02;;;;;;;;;;5021489;28;20037;-75
2024/01/14 13:15:04;;;;;;;19.10;5.65;;;;;;;;;;5016604;28;20063;-76
2024/01/14 13:17:30;;;;;;;31.23;10.55;;;;;;;;;;5018052;28;20041;-77
2024/01/14 13:19:55;;;;;;;24.15;7.55;;;;;;;;;;5018820;28;20026;-76
2024/01/14 13:22:21;;;;;;;19.85;6.13;;;;;;;;;;5023407;28;20055;-76
2024/01/14 13:24:47;;;;;;;21.05;7.90;;;;;;;;;;5023554;28;20087;-76
2024/01/14 13:27:13;;;;;;;22.83;8.07;;;;;;;;;;5023090;28;20419;-77
2024/01/14 13:29:39;;;;;;;18.85;6.28;;;;;;;;;;5022710;28;20041;-76
2024/01/14 13:32:05;;;;;;;17.50;6.05;;;;;;;;;;5004436;28;20029;-76
2024/01/14 13:34:31;;;;;;;23.73;7.63;;;;;;;;;;5023246;28;20477;-76
2024/01/14 13:36:56;;;;;;;28.52;8.95;;;;;;;;;;4998670;28;20029;-77
2024/01/14 13:39:22;;;;;;;29.35;8.55;;;;;;;;;;5024247;28;20037;-76
2024/01/14 13:41:48;;;;;;;29.10;10.98;;;;;;;;;;5027055;28;20030;-76
2024/01/14 13:44:13;;;;;;;25.35;8.32;;;;;;;;;;5033116;28;20037;-76
2024/01/14 13:46:38;;;;;;;23.98;8.80;;;;;;;;;;5026771;28;20488;-77
2024/01/14 13:49:04;;;;;;;26.17;7.88;;;;;;;;;;5023583;28;20021;-76
2024/01/14 13:51:29;;;;;;;28.13;7.63;;;;;;;;;;5005405;28;20037;-76
2024/01/14 13:53:54;;;;;;;30.33;8.98;;;;;;;;;;5023755;28;20037;-76
2024/01/14 13:56:20;;;;;;;23.08;8.85;;;;;;;;;;5005116;28;20045;-76
2024/01/14 13:58:45;;;;;;;28.13;9.93;;;;;;;;;;5023555;28;20025;-77
2024/01/14 14:01:11;;;;;;;24.63;8.88;;;;;;;;;;5023888;28;20022;-77
2024/01/14 14:03:36;;;;;;;31.30;10.15;;;;;;;;;;5023167;28;20097;-76
2024/01/14 14:06:02;;;;;;;25.77;8.77;;;;;;;;;;5022414;28;20045;-76
2024/01/14 14:08:27;;;;;;;31.38;9.02;;;;;;;;;;5023094;28;20204;-77
2024/01/14 14:10:53;;;;;;;18.55;6.63;;;;;;;;;;5023384;28;20025;-77
2024/01/14 14:13:18;;;;;;;24.23;5.72;;;;;;;;;;5008216;28;20639;-76
2024/01/14 14:15:43;;;;;;;21.02;7.85;;;;;;;;;;5010367;28;20049;-75
2024/01/14 14:18:09;;;;;;;26.23;6.53;;;;;;;;;;5028863;28;20034;-77
2024/01/14 14:20:34;;;;;;;22.70;7.13;;;;;;;;;;5028242;28;20605;-76